Staffordville, Connecticut
Current Conditions -  °F | °C
As of 10:52 AM on Friday 24 Oct 2014 (Local Time) from KIJD Reporting Station
Overcast Overcast  
Wind Chill: 51°   Ceiling: 1800
Heat Index: 51°   Visibility: 10mi
Dew Point: 44°   Wind: 13mph
Humidity: 77%   Direction: 330°NNW
Pressure: 29.76"   Gusts: 18mph
Location:  41.99°N, 72.26°W
Report Text: KIJD 241452Z AUTO 33011G16KT 10SM OVC018 11/07 A2976 RMK AO2 SLP076 60001 T01060067 51004
Loading
Personal Weather Stations






























Interactive Weather Map
Tropical Storm Tracking
New forecast layout! Learn more

10-Day Weather Forecast

Advertisements
Track Severe Weather on mobile